• Join FlightAware (Why Join?)
  • Login
  • US Flag 
08:22PM EDT


 

Airport Tracker/Info


-or-


 

Live Flight TrackerFlight Track Log ✈ CHQ4762 ✈ 16-Apr-2013 ✈ KORD - KIND

Flight Track Log - Related Links

Times and Time Zones

All times are in EDT time to prevent confusion due to time zone crossing. See the CHQ4762 flight status page for this flight to view local times or setup timezone preferences in your user account.

Time Position Orientation Groundspeed Altitude Reporting Facility
EDT Latitude Longitude Course Direction KTS MPH feet Rate Location/Type
10:31AM 42.0000 -87.9667 172° South 171 197 2,500  Level Chicago TRACON
10:32AM 41.9500 -87.9833 194° South 213 245 4,400 1,980 Climbing Chicago TRACON
10:33AM 41.8833 -87.9333 151° Southeast 261 300 6,500 1,980 Climbing Chicago TRACON
10:33AM 41.8686 -87.9031 123° Southeast 258 297 7,200 2,220 Climbing Chicago Center
10:34AM 41.6565 -87.6673 157° South  Level Estimated
10:34AM 41.8103 -87.8425 142° Southeast 268 308 9,500  Level Chicago Center
10:35AM 41.5751 -87.6078 156° South  Level Estimated
10:35AM 41.7383 -87.7911 152° Southeast 288 331 10,900  Level Chicago Center
10:36AM 41.4964 -87.5924 172° South  Level FlightAware Approximate
10:36AM 41.6597 -87.7367 153° Southeast 311 358 12,600  Level Chicago Center
10:37AM 41.5767 -87.6778 152° Southeast 332 382 14,500 1,440 Climbing Chicago Center
10:38AM 41.4914 -87.6183 152° Southeast 341 392 15,600 1,200 Climbing Chicago Center
10:39AM 41.3978 -87.5681 158° South 367 422 17,100 1,320 Climbing Chicago Center
10:40AM 41.3008 -87.5511 173° South 351 404 18,400 1,500 Climbing Chicago Center
10:41AM 41.1878 -87.4958 160° South 368 423 20,200 1,560 Climbing Chicago Center
10:42AM 41.0931 -87.4386 156° South 372 428 21,600 1,200 Climbing Chicago Center
10:43AM 40.9975 -87.3797 155° Southeast 377 434 22,800 660 Climbing Chicago Center
10:44AM 40.8989 -87.3189 155° Southeast 386 444 23,000 60 Climbing Chicago Center
10:45AM 40.7992 -87.2583 155° Southeast 393 452 23,000  Level Chicago Center
10:46AM 40.6989 -87.1986 156° South 395 455 23,000 -1,020 Level Chicago Center
10:47AM 40.6017 -87.1392 155° Southeast 391 450 21,000 -2,220 Descending Chicago Center
10:48AM 40.4900 -87.0703 155° Southeast 372 428 18,500 -2,220 Descending Chicago Center
10:49AM 40.4000 -87.0172 156° South 357 411 16,500 -1,980 Descending Chicago Center
10:50AM 40.3103 -86.9631 155° Southeast 355 409 14,500 -1,740 Descending Chicago Center
10:51AM 40.2211 -86.9100 156° South 351 404 13,000 -780 Descending Chicago Center
10:52AM 40.1400 -86.8458 149° Southeast 344 396 12,900 -660 Descending Chicago Center
10:53AM 40.0975 -86.7775 129° Southeast 345 397 11,900 -1,500 Descending Indianapolis Center
10:54AM 40.0347 -86.6858 132° Southeast 341 392 10,300 -960 Descending Indianapolis Center
10:55AM 39.9564 -86.5900 137° Southeast 335 386 10,000 -540 Descending Indianapolis Center
10:56AM 39.8953 -86.5267 142° Southeast 318 366 9,200 -1,200 Descending Indianapolis Center
10:57AM 39.8453 -86.4717 140° Southeast 274 315 7,600 -1,080 Descending Indianapolis Center
10:58AM 39.8225 -86.3842 109° East 274 315 7,000 -840 Descending Indianapolis Center
10:59AM 39.8500 -86.3000 67° East 276 318 6,100 -1,380 Descending Indianapolis TRACON
11:00AM 39.8667 -86.2167 75° East 265 305 4,600 -1,380 Descending Indianapolis TRACON
11:01AM 39.8500 -86.1667 113° Southeast 231 266 3,900 -960 Descending Indianapolis TRACON
11:02AM 39.8000 -86.2000 207° Southwest 164 189 2,900 -780 Descending Indianapolis TRACON
11:03AM 39.7833 -86.2333 237° Southwest 129 148 2,200 -720 Descending Indianapolis TRACON